sensor_id;sensor_type;location;lat;lon;timestamp;temperature;humidity
31074;DHT22;17730;53.552;9.940;2022-08-21T00:00:18;16.00;99.90
31074;DHT22;17730;53.552;9.940;2022-08-21T00:02:53;16.00;99.90
31074;DHT22;17730;53.552;9.940;2022-08-21T00:05:20;16.00;99.90
31074;DHT22;17730;53.552;9.940;2022-08-21T00:07:46;16.00;99.90
31074;DHT22;17730;53.552;9.940;2022-08-21T00:10:12;16.00;99.90
31074;DHT22;17730;53.552;9.940;2022-08-21T00:12:38;16.00;99.90
31074;DHT22;17730;53.552;9.940;2022-08-21T00:15:07;15.90;99.90
31074;DHT22;17730;53.552;9.940;2022-08-21T00:17:33;15.90;99.90
31074;DHT22;17730;53.552;9.940;2022-08-21T00:19:58;15.80;99.90
31074;DHT22;17730;53.552;9.940;2022-08-21T00:22:24;15.80;99.90
31074;DHT22;17730;53.552;9.940;2022-08-21T00:24:49;15.80;99.90
31074;DHT22;17730;53.552;9.940;2022-08-21T00:27:15;15.80;99.90
31074;DHT22;17730;53.552;9.940;2022-08-21T00:29:41;15.80;99.90
31074;DHT22;17730;53.552;9.940;2022-08-21T00:32:06;15.80;99.90
31074;DHT22;17730;53.552;9.940;2022-08-21T00:34:32;15.80;99.90
31074;DHT22;17730;53.552;9.940;2022-08-21T00:36:58;15.70;99.90
31074;DHT22;17730;53.552;9.940;2022-08-21T00:39:23;15.80;99.90
31074;DHT22;17730;53.552;9.940;2022-08-21T00:41:49;15.80;99.90
31074;DHT22;17730;53.552;9.940;2022-08-21T00:44:15;15.80;99.90
31074;DHT22;17730;53.552;9.940;2022-08-21T00:46:42;15.80;99.90
31074;DHT22;17730;53.552;9.940;2022-08-21T00:49:10;15.80;99.90
31074;DHT22;17730;53.552;9.940;2022-08-21T00:51:54;15.80;99.90
31074;DHT22;17730;53.552;9.940;2022-08-21T00:54:23;15.80;99.90
31074;DHT22;17730;53.552;9.940;2022-08-21T00:56:52;15.80;99.90
31074;DHT22;17730;53.552;9.940;2022-08-21T00:59:20;15.80;99.90
31074;DHT22;17730;53.552;9.940;2022-08-21T01:01:47;15.80;99.90
31074;DHT22;17730;53.552;9.940;2022-08-21T01:04:13;15.80;99.90
31074;DHT22;17730;53.552;9.940;2022-08-21T01:06:40;15.80;99.90
31074;DHT22;17730;53.552;9.940;2022-08-21T01:09:06;15.90;99.90
31074;DHT22;17730;53.552;9.940;2022-08-21T01:11:32;15.80;99.90
31074;DHT22;17730;53.552;9.940;2022-08-21T01:13:57;15.70;99.90
31074;DHT22;17730;53.552;9.940;2022-08-21T01:16:23;15.80;99.90
31074;DHT22;17730;53.552;9.940;2022-08-21T01:18:50;15.70;99.90
31074;DHT22;17730;53.552;9.940;2022-08-21T01:21:22;15.70;99.90
31074;DHT22;17730;53.552;9.940;2022-08-21T01:23:51;15.70;99.90
31074;DHT22;17730;53.552;9.940;2022-08-21T01:26:24;15.70;99.90
31074;DHT22;17730;53.552;9.940;2022-08-21T01:29:08;15.80;99.90
31074;DHT22;17730;53.552;9.940;2022-08-21T01:31:35;15.80;99.90
31074;DHT22;17730;53.552;9.940;2022-08-21T01:34:02;15.80;99.90
31074;DHT22;17730;53.552;9.940;2022-08-21T01:36:28;15.70;99.90
31074;DHT22;17730;53.552;9.940;2022-08-21T01:38:54;15.80;99.90
31074;DHT22;17730;53.552;9.940;2022-08-21T01:41:20;15.70;99.90
31074;DHT22;17730;53.552;9.940;2022-08-21T01:43:45;15.70;99.90
31074;DHT22;17730;53.552;9.940;2022-08-21T01:46:12;15.70;99.90
31074;DHT22;17730;53.552;9.940;2022-08-21T01:48:37;15.70;99.90
31074;DHT22;17730;53.552;9.940;2022-08-21T01:51:04;15.70;99.90
31074;DHT22;17730;53.552;9.940;2022-08-21T01:53:30;15.70;99.90
31074;DHT22;17730;53.552;9.940;2022-08-21T01:55:56;15.80;99.90
31074;DHT22;17730;53.552;9.940;2022-08-21T01:58:22;15.80;99.90
31074;DHT22;17730;53.552;9.940;2022-08-21T02:00:47;15.70;99.90
31074;DHT22;17730;53.552;9.940;2022-08-21T02:03:14;15.70;99.90
31074;DHT22;17730;53.552;9.940;2022-08-21T02:05:40;15.80;99.90
31074;DHT22;17730;53.552;9.940;2022-08-21T02:08:06;15.70;99.90
31074;DHT22;17730;53.552;9.940;2022-08-21T02:10:32;15.70;99.90
31074;DHT22;17730;53.552;9.940;2022-08-21T02:12:59;15.70;99.90
31074;DHT22;17730;53.552;9.940;2022-08-21T02:15:27;15.70;99.90
31074;DHT22;17730;53.552;9.940;2022-08-21T02:18:00;15.60;99.90
31074;DHT22;17730;53.552;9.940;2022-08-21T02:20:29;15.60;99.90
31074;DHT22;17730;53.552;9.940;2022-08-21T02:22:55;15.50;99.90
31074;DHT22;17730;53.552;9.940;2022-08-21T02:25:22;15.60;99.90
31074;DHT22;17730;53.552;9.940;2022-08-21T02:27:48;15.50;99.90
31074;DHT22;17730;53.552;9.940;2022-08-21T02:30:21;15.50;99.90
31074;DHT22;17730;53.552;9.940;2022-08-21T02:32:47;15.50;99.90
31074;DHT22;17730;53.552;9.940;2022-08-21T02:35:13;15.50;99.90
31074;DHT22;17730;53.552;9.940;2022-08-21T02:38:06;15.50;99.90
31074;DHT22;17730;53.552;9.940;2022-08-21T02:40:32;15.50;99.90
31074;DHT22;17730;53.552;9.940;2022-08-21T02:42:59;15.50;99.90
31074;DHT22;17730;53.552;9.940;2022-08-21T02:45:25;15.50;99.90
31074;DHT22;17730;53.552;9.940;2022-08-21T02:47:53;15.50;99.90
31074;DHT22;17730;53.552;9.940;2022-08-21T02:50:25;15.50;99.90
31074;DHT22;17730;53.552;9.940;2022-08-21T02:52:51;15.40;99.90
31074;DHT22;17730;53.552;9.940;2022-08-21T02:55:18;15.40;99.90
31074;DHT22;17730;53.552;9.940;2022-08-21T02:57:46;15.40;99.90
31074;DHT22;17730;53.552;9.940;2022-08-21T03:00:12;15.40;99.90
31074;DHT22;17730;53.552;9.940;2022-08-21T03:02:39;15.40;99.90
31074;DHT22;17730;53.552;9.940;2022-08-21T03:05:08;15.30;99.90
31074;DHT22;17730;53.552;9.940;2022-08-21T03:07:35;15.30;99.90
31074;DHT22;17730;53.552;9.940;2022-08-21T03:10:01;15.20;99.90
31074;DHT22;17730;53.552;9.940;2022-08-21T03:12:26;15.20;99.90
31074;DHT22;17730;53.552;9.940;2022-08-21T03:14:52;15.20;99.90
31074;DHT22;17730;53.552;9.940;2022-08-21T03:17:17;15.20;99.90
31074;DHT22;17730;53.552;9.940;2022-08-21T03:19:43;15.20;99.90
31074;DHT22;17730;53.552;9.940;2022-08-21T03:22:08;15.20;99.90
31074;DHT22;17730;53.552;9.940;2022-08-21T03:24:34;15.20;99.90
31074;DHT22;17730;53.552;9.940;2022-08-21T03:27:00;15.20;99.90
31074;DHT22;17730;53.552;9.940;2022-08-21T03:29:25;15.10;99.90
31074;DHT22;17730;53.552;9.940;2022-08-21T03:31:51;15.10;99.90
31074;DHT22;17730;53.552;9.940;2022-08-21T03:34:19;15.00;99.90
31074;DHT22;17730;53.552;9.940;2022-08-21T03:36:45;15.00;99.90
31074;DHT22;17730;53.552;9.940;2022-08-21T03:39:11;15.00;99.90
31074;DHT22;17730;53.552;9.940;2022-08-21T03:41:36;15.00;99.90
31074;DHT22;17730;53.552;9.940;2022-08-21T03:44:02;14.90;99.90
31074;DHT22;17730;53.552;9.940;2022-08-21T03:46:28;14.90;99.90
31074;DHT22;17730;53.552;9.940;2022-08-21T03:48:53;14.90;99.90
31074;DHT22;17730;53.552;9.940;2022-08-21T03:51:19;14.90;99.90
31074;DHT22;17730;53.552;9.940;2022-08-21T03:53:45;15.00;99.90
31074;DHT22;17730;53.552;9.940;2022-08-21T03:56:10;15.00;99.90
31074;DHT22;17730;53.552;9.940;2022-08-21T03:58:36;15.00;99.90
31074;DHT22;17730;53.552;9.940;2022-08-21T04:01:04;15.00;99.90
31074;DHT22;17730;53.552;9.940;2022-08-21T04:03:33;14.90;99.90
31074;DHT22;17730;53.552;9.940;2022-08-21T04:05:59;14.90;99.90
31074;DHT22;17730;53.552;9.940;2022-08-21T04:08:25;14.90;99.90
31074;DHT22;17730;53.552;9.940;2022-08-21T04:10:52;14.80;99.90
31074;DHT22;17730;53.552;9.940;2022-08-21T04:13:19;14.90;99.90
31074;DHT22;17730;53.552;9.940;2022-08-21T04:15:45;14.90;99.90
31074;DHT22;17730;53.552;9.940;2022-08-21T04:18:10;14.90;99.90
31074;DHT22;17730;53.552;9.940;2022-08-21T04:20:36;15.00;99.90
31074;DHT22;17730;53.552;9.940;2022-08-21T04:23:03;15.00;99.90
31074;DHT22;17730;53.552;9.940;2022-08-21T04:25:29;15.10;99.90
31074;DHT22;17730;53.552;9.940;2022-08-21T04:27:55;15.20;99.90
31074;DHT22;17730;53.552;9.940;2022-08-21T04:30:21;15.30;99.90
31074;DHT22;17730;53.552;9.940;2022-08-21T04:32:49;15.40;99.90
31074;DHT22;17730;53.552;9.940;2022-08-21T04:35:17;15.50;99.90
31074;DHT22;17730;53.552;9.940;2022-08-21T04:37:43;15.60;99.90
31074;DHT22;17730;53.552;9.940;2022-08-21T04:40:10;15.70;99.90
31074;DHT22;17730;53.552;9.940;2022-08-21T04:42:45;15.80;99.90
31074;DHT22;17730;53.552;9.940;2022-08-21T04:45:17;16.00;99.90
31074;DHT22;17730;53.552;9.940;2022-08-21T04:47:46;16.10;99.90
31074;DHT22;17730;53.552;9.940;2022-08-21T04:50:12;16.10;99.90
31074;DHT22;17730;53.552;9.940;2022-08-21T04:52:37;16.20;99.90
31074;DHT22;17730;53.552;9.940;2022-08-21T04:55:03;16.30;99.90
31074;DHT22;17730;53.552;9.940;2022-08-21T04:57:29;16.40;99.90
31074;DHT22;17730;53.552;9.940;2022-08-21T04:59:55;16.40;99.90
31074;DHT22;17730;53.552;9.940;2022-08-21T05:02:20;16.50;99.90
31074;DHT22;17730;53.552;9.940;2022-08-21T05:04:49;16.50;99.90
31074;DHT22;17730;53.552;9.940;2022-08-21T05:07:21;16.60;99.90
31074;DHT22;17730;53.552;9.940;2022-08-21T05:09:47;16.60;99.90
31074;DHT22;17730;53.552;9.940;2022-08-21T05:12:13;16.70;99.90
31074;DHT22;17730;53.552;9.940;2022-08-21T05:14:38;16.70;99.90
31074;DHT22;17730;53.552;9.940;2022-08-21T05:17:04;16.90;99.90
31074;DHT22;17730;53.552;9.940;2022-08-21T05:19:30;17.10;99.90
31074;DHT22;17730;53.552;9.940;2022-08-21T05:21:56;17.10;99.90
31074;DHT22;17730;53.552;9.940;2022-08-21T05:24:23;17.30;99.90
31074;DHT22;17730;53.552;9.940;2022-08-21T05:26:48;17.40;99.90
31074;DHT22;17730;53.552;9.940;2022-08-21T05:29:15;17.40;99.90
31074;DHT22;17730;53.552;9.940;2022-08-21T05:31:40;17.50;99.90
31074;DHT22;17730;53.552;9.940;2022-08-21T05:34:06;17.60;99.90
31074;DHT22;17730;53.552;9.940;2022-08-21T05:36:32;17.70;99.90
31074;DHT22;17730;53.552;9.940;2022-08-21T05:38:57;17.70;99.90
31074;DHT22;17730;53.552;9.940;2022-08-21T05:41:23;17.70;99.90
31074;DHT22;17730;53.552;9.940;2022-08-21T05:43:48;17.80;99.90
31074;DHT22;17730;53.552;9.940;2022-08-21T05:46:14;17.80;99.90
31074;DHT22;17730;53.552;9.940;2022-08-21T05:48:40;17.80;99.90
31074;DHT22;17730;53.552;9.940;2022-08-21T05:51:08;17.80;99.90
31074;DHT22;17730;53.552;9.940;2022-08-21T05:53:35;17.70;99.90
31074;DHT22;17730;53.552;9.940;2022-08-21T05:56:01;17.80;99.90
31074;DHT22;17730;53.552;9.940;2022-08-21T05:58:30;17.90;99.90
31074;DHT22;17730;53.552;9.940;2022-08-21T06:00:56;18.00;99.90
31074;DHT22;17730;53.552;9.940;2022-08-21T06:03:28;18.20;99.90
31074;DHT22;17730;53.552;9.940;2022-08-21T06:05:54;18.50;99.90
31074;DHT22;17730;53.552;9.940;2022-08-21T06:08:21;18.70;99.90
31074;DHT22;17730;53.552;9.940;2022-08-21T06:10:47;18.60;99.90
31074;DHT22;17730;53.552;9.940;2022-08-21T06:13:16;18.70;99.90
31074;DHT22;17730;53.552;9.940;2022-08-21T06:15:42;18.80;99.90
31074;DHT22;17730;53.552;9.940;2022-08-21T06:18:08;18.90;99.90
31074;DHT22;17730;53.552;9.940;2022-08-21T06:20:34;19.00;99.90
31074;DHT22;17730;53.552;9.940;2022-08-21T06:23:00;19.10;99.90
31074;DHT22;17730;53.552;9.940;2022-08-21T06:25:27;19.30;99.90
31074;DHT22;17730;53.552;9.940;2022-08-21T06:27:52;19.30;99.90
31074;DHT22;17730;53.552;9.940;2022-08-21T06:30:18;19.40;99.90
31074;DHT22;17730;53.552;9.940;2022-08-21T06:32:44;19.40;99.90
31074;DHT22;17730;53.552;9.940;2022-08-21T06:35:10;19.40;99.90
31074;DHT22;17730;53.552;9.940;2022-08-21T06:37:35;19.50;99.90
31074;DHT22;17730;53.552;9.940;2022-08-21T06:40:03;19.50;99.90
31074;DHT22;17730;53.552;9.940;2022-08-21T06:42:28;19.60;99.90
31074;DHT22;17730;53.552;9.940;2022-08-21T06:44:54;19.60;99.90
31074;DHT22;17730;53.552;9.940;2022-08-21T06:47:21;19.60;99.90
31074;DHT22;17730;53.552;9.940;2022-08-21T06:49:47;19.70;99.90
31074;DHT22;17730;53.552;9.940;2022-08-21T06:52:13;19.70;99.90
31074;DHT22;17730;53.552;9.940;2022-08-21T06:54:39;19.70;99.90
31074;DHT22;17730;53.552;9.940;2022-08-21T06:57:05;19.70;99.90
31074;DHT22;17730;53.552;9.940;2022-08-21T06:59:31;19.80;99.90
31074;DHT22;17730;53.552;9.940;2022-08-21T07:01:58;19.90;99.90
31074;DHT22;17730;53.552;9.940;2022-08-21T07:04:24;19.90;99.90
31074;DHT22;17730;53.552;9.940;2022-08-21T07:06:49;19.90;99.90
31074;DHT22;17730;53.552;9.940;2022-08-21T07:09:15;20.00;99.90
31074;DHT22;17730;53.552;9.940;2022-08-21T07:11:41;20.10;99.90
31074;DHT22;17730;53.552;9.940;2022-08-21T07:14:06;20.20;99.90
31074;DHT22;17730;53.552;9.940;2022-08-21T07:16:32;20.30;99.90
31074;DHT22;17730;53.552;9.940;2022-08-21T07:18:58;20.40;99.90
31074;DHT22;17730;53.552;9.940;2022-08-21T07:21:23;20.50;99.90
31074;DHT22;17730;53.552;9.940;2022-08-21T07:23:50;20.50;99.90
31074;DHT22;17730;53.552;9.940;2022-08-21T07:26:19;20.60;99.90
31074;DHT22;17730;53.552;9.940;2022-08-21T07:28:46;20.70;99.90
31074;DHT22;17730;53.552;9.940;2022-08-21T07:31:14;20.70;99.90
31074;DHT22;17730;53.552;9.940;2022-08-21T07:33:40;20.80;99.90
31074;DHT22;17730;53.552;9.940;2022-08-21T07:36:07;20.90;99.90
31074;DHT22;17730;53.552;9.940;2022-08-21T07:38:33;21.10;99.90
31074;DHT22;17730;53.552;9.940;2022-08-21T07:41:00;21.20;99.90
31074;DHT22;17730;53.552;9.940;2022-08-21T07:43:27;21.30;99.90
31074;DHT22;17730;53.552;9.940;2022-08-21T07:45:54;21.50;99.90
31074;DHT22;17730;53.552;9.940;2022-08-21T07:48:21;21.50;99.90
31074;DHT22;17730;53.552;9.940;2022-08-21T07:50:47;21.60;99.90
31074;DHT22;17730;53.552;9.940;2022-08-21T07:53:13;21.70;99.90
31074;DHT22;17730;53.552;9.940;2022-08-21T07:55:38;21.80;99.90
31074;DHT22;17730;53.552;9.940;2022-08-21T07:58:04;21.80;99.90
31074;DHT22;17730;53.552;9.940;2022-08-21T08:00:30;22.00;99.90
31074;DHT22;17730;53.552;9.940;2022-08-21T08:02:56;22.00;99.90
31074;DHT22;17730;53.552;9.940;2022-08-21T08:05:28;22.20;99.90
31074;DHT22;17730;53.552;9.940;2022-08-21T08:07:54;22.30;99.80
31074;DHT22;17730;53.552;9.940;2022-08-21T08:10:19;22.30;99.80
31074;DHT22;17730;53.552;9.940;2022-08-21T08:12:46;22.40;99.60
31074;DHT22;17730;53.552;9.940;2022-08-21T08:15:17;22.50;99.50
31074;DHT22;17730;53.552;9.940;2022-08-21T08:17:43;22.60;99.50
31074;DHT22;17730;53.552;9.940;2022-08-21T08:20:10;22.60;99.40
31074;DHT22;17730;53.552;9.940;2022-08-21T08:22:37;22.70;99.50
31074;DHT22;17730;53.552;9.940;2022-08-21T08:25:05;22.70;99.70
31074;DHT22;17730;53.552;9.940;2022-08-21T08:27:32;22.80;99.80
31074;DHT22;17730;53.552;9.940;2022-08-21T08:29:57;22.70;99.70
31074;DHT22;17730;53.552;9.940;2022-08-21T08:32:23;22.80;99.90
31074;DHT22;17730;53.552;9.940;2022-08-21T08:34:50;22.60;99.70
31074;DHT22;17730;53.552;9.940;2022-08-21T08:37:17;22.50;99.90
31074;DHT22;17730;53.552;9.940;2022-08-21T08:39:43;22.40;99.90
31074;DHT22;17730;53.552;9.940;2022-08-21T08:42:29;22.50;99.90
31074;DHT22;17730;53.552;9.940;2022-08-21T08:45:08;22.60;99.90
31074;DHT22;17730;53.552;9.940;2022-08-21T08:47:40;22.80;99.90
31074;DHT22;17730;53.552;9.940;2022-08-21T08:50:17;23.00;99.90
31074;DHT22;17730;53.552;9.940;2022-08-21T08:53:10;22.80;99.90
31074;DHT22;17730;53.552;9.940;2022-08-21T08:55:40;22.70;99.90
31074;DHT22;17730;53.552;9.940;2022-08-21T08:58:08;22.70;99.90
31074;DHT22;17730;53.552;9.940;2022-08-21T09:00:34;22.80;99.90
31074;DHT22;17730;53.552;9.940;2022-08-21T09:03:01;22.90;99.90
31074;DHT22;17730;53.552;9.940;2022-08-21T09:06:03;23.00;99.60
31074;DHT22;17730;53.552;9.940;2022-08-21T09:08:59;23.20;99.60
31074;DHT22;17730;53.552;9.940;2022-08-21T09:11:42;23.20;99.60
31074;DHT22;17730;53.552;9.940;2022-08-21T09:25:24;23.90;98.40
31074;DHT22;17730;53.552;9.940;2022-08-21T09:27:50;23.80;98.50
31074;DHT22;17730;53.552;9.940;2022-08-21T09:30:17;23.70;98.40
31074;DHT22;17730;53.552;9.940;2022-08-21T09:32:44;23.70;98.70
31074;DHT22;17730;53.552;9.940;2022-08-21T09:35:14;23.70;98.60
31074;DHT22;17730;53.552;9.940;2022-08-21T09:37:57;23.80;98.60
31074;DHT22;17730;53.552;9.940;2022-08-21T09:40:41;24.00;98.50
31074;DHT22;17730;53.552;9.940;2022-08-21T09:43:20;24.00;98.40
31074;DHT22;17730;53.552;9.940;2022-08-21T09:45:47;24.20;98.40
31074;DHT22;17730;53.552;9.940;2022-08-21T09:48:22;24.30;98.20
31074;DHT22;17730;53.552;9.940;2022-08-21T09:50:49;24.20;98.00
31074;DHT22;17730;53.552;9.940;2022-08-21T09:53:19;23.70;98.70
31074;DHT22;17730;53.552;9.940;2022-08-21T09:55:54;23.60;99.00
31074;DHT22;17730;53.552;9.940;2022-08-21T09:58:42;23.90;98.80
31074;DHT22;17730;53.552;9.940;2022-08-21T10:01:15;24.20;98.50
31074;DHT22;17730;53.552;9.940;2022-08-21T10:03:41;24.40;98.20
31074;DHT22;17730;53.552;9.940;2022-08-21T10:06:08;24.50;97.90
31074;DHT22;17730;53.552;9.940;2022-08-21T10:08:39;24.50;97.80
31074;DHT22;17730;53.552;9.940;2022-08-21T10:11:08;24.30;98.00
31074;DHT22;17730;53.552;9.940;2022-08-21T10:13:46;23.90;98.50
31074;DHT22;17730;53.552;9.940;2022-08-21T10:16:26;23.60;99.10
31074;DHT22;17730;53.552;9.940;2022-08-21T10:49:02;25.40;95.20
31074;DHT22;17730;53.552;9.940;2022-08-21T10:54:35;25.70;93.90
31074;DHT22;17730;53.552;9.940;2022-08-21T12:01:03;25.90;94.00
31074;DHT22;17730;53.552;9.940;2022-08-21T12:03:37;27.00;83.20
31074;DHT22;17730;53.552;9.940;2022-08-21T17:59:21;26.60;84.10
31074;DHT22;17730;53.552;9.940;2022-08-21T18:01:47;23.50;97.70
31074;DHT22;17730;53.552;9.940;2022-08-21T18:04:14;23.20;98.40
31074;DHT22;17730;53.552;9.940;2022-08-21T18:06:41;23.00;98.90
31074;DHT22;17730;53.552;9.940;2022-08-21T18:09:07;22.90;99.50
31074;DHT22;17730;53.552;9.940;2022-08-21T18:11:34;22.80;99.90
31074;DHT22;17730;53.552;9.940;2022-08-21T18:14:03;22.60;99.90
31074;DHT22;17730;53.552;9.940;2022-08-21T18:16:31;22.50;99.90
31074;DHT22;17730;53.552;9.940;2022-08-21T18:18:59;22.40;99.90
31074;DHT22;17730;53.552;9.940;2022-08-21T18:21:26;22.20;99.90
31074;DHT22;17730;53.552;9.940;2022-08-21T18:23:52;22.10;99.90
31074;DHT22;17730;53.552;9.940;2022-08-21T18:26:35;22.00;99.90
31074;DHT22;17730;53.552;9.940;2022-08-21T18:29:04;21.90;99.90
31074;DHT22;17730;53.552;9.940;2022-08-21T18:31:31;21.80;99.90
31074;DHT22;17730;53.552;9.940;2022-08-21T18:34:02;21.80;99.90
31074;DHT22;17730;53.552;9.940;2022-08-21T18:36:30;21.70;99.90
31074;DHT22;17730;53.552;9.940;2022-08-21T18:38:56;21.60;99.90
31074;DHT22;17730;53.552;9.940;2022-08-21T18:41:24;21.50;99.90
31074;DHT22;17730;53.552;9.940;2022-08-21T18:43:49;21.40;99.90
31074;DHT22;17730;53.552;9.940;2022-08-21T18:46:15;21.40;99.90
31074;DHT22;17730;53.552;9.940;2022-08-21T18:48:42;21.30;99.90
31074;DHT22;17730;53.552;9.940;2022-08-21T18:51:07;21.20;99.90
31074;DHT22;17730;53.552;9.940;2022-08-21T18:53:35;21.20;99.90
31074;DHT22;17730;53.552;9.940;2022-08-21T18:56:01;21.10;99.90
31074;DHT22;17730;53.552;9.940;2022-08-21T18:58:27;21.10;99.90
31074;DHT22;17730;53.552;9.940;2022-08-21T19:00:53;21.00;99.90
31074;DHT22;17730;53.552;9.940;2022-08-21T19:03:22;20.90;99.90
31074;DHT22;17730;53.552;9.940;2022-08-21T19:05:48;20.90;99.90
31074;DHT22;17730;53.552;9.940;2022-08-21T19:08:17;20.80;99.90
31074;DHT22;17730;53.552;9.940;2022-08-21T19:10:45;20.70;99.90
31074;DHT22;17730;53.552;9.940;2022-08-21T19:13:13;20.60;99.90
31074;DHT22;17730;53.552;9.940;2022-08-21T19:15:41;20.60;99.90
31074;DHT22;17730;53.552;9.940;2022-08-21T19:18:11;20.50;99.90
31074;DHT22;17730;53.552;9.940;2022-08-21T19:20:37;20.50;99.90
31074;DHT22;17730;53.552;9.940;2022-08-21T19:23:10;20.50;99.90
31074;DHT22;17730;53.552;9.940;2022-08-21T19:25:40;20.50;99.90
31074;DHT22;17730;53.552;9.940;2022-08-21T19:28:12;20.50;99.90
31074;DHT22;17730;53.552;9.940;2022-08-21T19:30:55;20.40;99.90
31074;DHT22;17730;53.552;9.940;2022-08-21T19:33:24;20.40;99.90
31074;DHT22;17730;53.552;9.940;2022-08-21T19:35:51;20.30;99.90
31074;DHT22;17730;53.552;9.940;2022-08-21T19:38:16;20.30;99.90
31074;DHT22;17730;53.552;9.940;2022-08-21T19:40:42;20.20;99.90
31074;DHT22;17730;53.552;9.940;2022-08-21T19:43:07;20.10;99.90
31074;DHT22;17730;53.552;9.940;2022-08-21T19:45:35;20.00;99.90
31074;DHT22;17730;53.552;9.940;2022-08-21T19:48:02;20.00;99.90
31074;DHT22;17730;53.552;9.940;2022-08-21T19:50:28;20.10;99.90
31074;DHT22;17730;53.552;9.940;2022-08-21T19:52:54;20.00;99.90
31074;DHT22;17730;53.552;9.940;2022-08-21T19:55:19;20.00;99.90
31074;DHT22;17730;53.552;9.940;2022-08-21T19:57:45;19.90;99.90
31074;DHT22;17730;53.552;9.940;2022-08-21T20:00:11;19.90;99.90
31074;DHT22;17730;53.552;9.940;2022-08-21T20:02:37;19.80;99.90
31074;DHT22;17730;53.552;9.940;2022-08-21T20:05:04;19.80;99.90
31074;DHT22;17730;53.552;9.940;2022-08-21T20:07:30;19.80;99.90
31074;DHT22;17730;53.552;9.940;2022-08-21T20:09:57;19.80;99.90
31074;DHT22;17730;53.552;9.940;2022-08-21T20:12:23;19.80;99.90
31074;DHT22;17730;53.552;9.940;2022-08-21T20:14:49;19.80;99.90
31074;DHT22;17730;53.552;9.940;2022-08-21T20:17:16;19.80;99.90
31074;DHT22;17730;53.552;9.940;2022-08-21T20:19:44;19.80;99.90
31074;DHT22;17730;53.552;9.940;2022-08-21T20:22:10;19.90;99.90
31074;DHT22;17730;53.552;9.940;2022-08-21T20:24:37;19.90;99.90
31074;DHT22;17730;53.552;9.940;2022-08-21T20:27:04;19.90;99.90
31074;DHT22;17730;53.552;9.940;2022-08-21T20:29:30;19.80;99.90
31074;DHT22;17730;53.552;9.940;2022-08-21T20:31:57;19.80;99.90
31074;DHT22;17730;53.552;9.940;2022-08-21T20:34:22;19.80;99.90
31074;DHT22;17730;53.552;9.940;2022-08-21T20:36:48;19.80;99.90
31074;DHT22;17730;53.552;9.940;2022-08-21T20:39:14;19.70;99.90
31074;DHT22;17730;53.552;9.940;2022-08-21T20:41:40;19.70;99.90
31074;DHT22;17730;53.552;9.940;2022-08-21T20:44:10;19.70;99.90
31074;DHT22;17730;53.552;9.940;2022-08-21T20:46:36;19.60;99.90
31074;DHT22;17730;53.552;9.940;2022-08-21T20:49:02;19.60;99.90
31074;DHT22;17730;53.552;9.940;2022-08-21T20:56:58;19.50;99.90
31074;DHT22;17730;53.552;9.940;2022-08-21T21:02:20;19.40;99.90
31074;DHT22;17730;53.552;9.940;2022-08-21T21:04:49;19.40;99.90
31074;DHT22;17730;53.552;9.940;2022-08-21T21:07:20;19.40;99.90
31074;DHT22;17730;53.552;9.940;2022-08-21T21:09:50;19.30;99.90
31074;DHT22;17730;53.552;9.940;2022-08-21T21:12:21;19.30;99.90
31074;DHT22;17730;53.552;9.940;2022-08-21T21:14:52;19.30;99.90
31074;DHT22;17730;53.552;9.940;2022-08-21T21:17:32;19.30;99.90
31074;DHT22;17730;53.552;9.940;2022-08-21T21:22:35;19.40;99.90
31074;DHT22;17730;53.552;9.940;2022-08-21T21:25:20;19.40;99.90
31074;DHT22;17730;53.552;9.940;2022-08-21T21:27:52;19.30;99.90
31074;DHT22;17730;53.552;9.940;2022-08-21T21:30:28;19.30;99.90
31074;DHT22;17730;53.552;9.940;2022-08-21T21:32:55;19.30;99.90
31074;DHT22;17730;53.552;9.940;2022-08-21T21:35:27;19.30;99.90
31074;DHT22;17730;53.552;9.940;2022-08-21T21:43:29;19.10;99.90
31074;DHT22;17730;53.552;9.940;2022-08-21T21:51:27;19.10;99.90
31074;DHT22;17730;53.552;9.940;2022-08-21T21:57:52;19.10;99.90
31074;DHT22;17730;53.552;9.940;2022-08-21T22:00:06;19.10;99.90
31074;DHT22;17730;53.552;9.940;2022-08-21T22:03:11;19.10;99.90
31074;DHT22;17730;53.552;9.940;2022-08-21T22:14:10;19.10;99.90
31074;DHT22;17730;53.552;9.940;2022-08-21T22:16:37;19.10;99.90
31074;DHT22;17730;53.552;9.940;2022-08-21T22:19:17;19.10;99.90
31074;DHT22;17730;53.552;9.940;2022-08-21T22:21:51;19.10;99.90
31074;DHT22;17730;53.552;9.940;2022-08-21T22:24:24;19.10;99.90
31074;DHT22;17730;53.552;9.940;2022-08-21T22:26:57;19.10;99.90
31074;DHT22;17730;53.552;9.940;2022-08-21T22:29:24;19.10;99.90
31074;DHT22;17730;53.552;9.940;2022-08-21T22:32:02;19.00;99.90
31074;DHT22;17730;53.552;9.940;2022-08-21T22:34:28;19.00;99.90
31074;DHT22;17730;53.552;9.940;2022-08-21T22:37:03;19.00;99.90
31074;DHT22;17730;53.552;9.940;2022-08-21T22:39:37;19.00;99.90
31074;DHT22;17730;53.552;9.940;2022-08-21T22:42:06;19.00;99.90
31074;DHT22;17730;53.552;9.940;2022-08-21T22:44:33;19.00;99.90
31074;DHT22;17730;53.552;9.940;2022-08-21T22:47:21;18.90;99.90
31074;DHT22;17730;53.552;9.940;2022-08-21T22:49:49;18.90;99.90
31074;DHT22;17730;53.552;9.940;2022-08-21T22:52:25;18.90;99.90
31074;DHT22;17730;53.552;9.940;2022-08-21T22:54:54;18.90;99.90
31074;DHT22;17730;53.552;9.940;2022-08-21T23:02:24;18.90;99.90
31074;DHT22;17730;53.552;9.940;2022-08-21T23:04:51;18.90;99.90
31074;DHT22;17730;53.552;9.940;2022-08-21T23:07:36;18.80;99.90
31074;DHT22;17730;53.552;9.940;2022-08-21T23:10:29;18.80;99.90
31074;DHT22;17730;53.552;9.940;2022-08-21T23:13:11;18.80;99.90
31074;DHT22;17730;53.552;9.940;2022-08-21T23:15:55;18.80;99.90
31074;DHT22;17730;53.552;9.940;2022-08-21T23:21:28;18.70;99.90
31074;DHT22;17730;53.552;9.940;2022-08-21T23:24:10;18.70;99.90
31074;DHT22;17730;53.552;9.940;2022-08-21T23:27:05;18.60;99.90
31074;DHT22;17730;53.552;9.940;2022-08-21T23:30:05;18.60;99.90
31074;DHT22;17730;53.552;9.940;2022-08-21T23:33:23;18.60;99.90
31074;DHT22;17730;53.552;9.940;2022-08-21T23:35:31;18.60;99.90
31074;DHT22;17730;53.552;9.940;2022-08-21T23:44:11;18.60;99.90
31074;DHT22;17730;53.552;9.940;2022-08-21T23:46:41;18.60;99.90
31074;DHT22;17730;53.552;9.940;2022-08-21T23:52:11;18.60;99.90
